sensor_id;sensor_type;location;lat;lon;timestamp;P1;durP1;ratioP1;P2;durP2;ratioP2
46086;SDS011;31824;49.648;8.640;2023-06-22T00:00:38;8.07;;;2.67;;
46086;SDS011;31824;49.648;8.640;2023-06-22T00:03:43;4.55;;;2.47;;
46086;SDS011;31824;49.648;8.640;2023-06-22T00:07:14;5.78;;;2.33;;
46086;SDS011;31824;49.648;8.640;2023-06-22T00:10:19;3.75;;;2.00;;
46086;SDS011;31824;49.648;8.640;2023-06-22T00:13:21;4.32;;;2.30;;
46086;SDS011;31824;49.648;8.640;2023-06-22T00:16:25;4.68;;;2.30;;
46086;SDS011;31824;49.648;8.640;2023-06-22T00:22:56;4.95;;;2.35;;
46086;SDS011;31824;49.648;8.640;2023-06-22T00:26:05;4.97;;;2.20;;
46086;SDS011;31824;49.648;8.640;2023-06-22T00:29:09;4.47;;;2.00;;
46086;SDS011;31824;49.648;8.640;2023-06-22T00:32:13;5.03;;;2.20;;
46086;SDS011;31824;49.648;8.640;2023-06-22T00:35:16;4.45;;;2.55;;
46086;SDS011;31824;49.648;8.640;2023-06-22T00:38:24;4.55;;;2.30;;
46086;SDS011;31824;49.648;8.640;2023-06-22T00:41:26;4.05;;;2.33;;
46086;SDS011;31824;49.648;8.640;2023-06-22T00:44:54;6.22;;;2.75;;
46086;SDS011;31824;49.648;8.640;2023-06-22T00:47:59;5.95;;;3.03;;
46086;SDS011;31824;49.648;8.640;2023-06-22T00:51:02;5.28;;;2.95;;
46086;SDS011;31824;49.648;8.640;2023-06-22T00:54:05;5.55;;;2.67;;
46086;SDS011;31824;49.648;8.640;2023-06-22T00:57:07;5.45;;;2.95;;
46086;SDS011;31824;49.648;8.640;2023-06-22T01:00:13;6.38;;;2.97;;
46086;SDS011;31824;49.648;8.640;2023-06-22T01:03:44;7.18;;;3.13;;
46086;SDS011;31824;49.648;8.640;2023-06-22T01:10:16;6.25;;;3.10;;
46086;SDS011;31824;49.648;8.640;2023-06-22T01:13:29;6.47;;;3.65;;
46086;SDS011;31824;49.648;8.640;2023-06-22T01:16:39;7.53;;;3.20;;
46086;SDS011;31824;49.648;8.640;2023-06-22T01:19:45;6.35;;;3.63;;
46086;SDS011;31824;49.648;8.640;2023-06-22T01:23:01;6.90;;;3.55;;
46086;SDS011;31824;49.648;8.640;2023-06-22T01:26:12;7.43;;;4.10;;
46086;SDS011;31824;49.648;8.640;2023-06-22T01:29:46;6.93;;;3.28;;
46086;SDS011;31824;49.648;8.640;2023-06-22T01:32:52;6.30;;;3.35;;
46086;SDS011;31824;49.648;8.640;2023-06-22T01:35:59;6.05;;;3.35;;
46086;SDS011;31824;49.648;8.640;2023-06-22T01:39:03;6.28;;;3.40;;
46086;SDS011;31824;49.648;8.640;2023-06-22T01:42:07;6.72;;;3.60;;
46086;SDS011;31824;49.648;8.640;2023-06-22T01:45:37;7.63;;;3.60;;
46086;SDS011;31824;49.648;8.640;2023-06-22T01:48:40;8.30;;;3.72;;
46086;SDS011;31824;49.648;8.640;2023-06-22T01:51:42;6.65;;;3.45;;
46086;SDS011;31824;49.648;8.640;2023-06-22T01:54:45;7.47;;;3.47;;
46086;SDS011;31824;49.648;8.640;2023-06-22T01:57:47;6.80;;;3.75;;
46086;SDS011;31824;49.648;8.640;2023-06-22T02:00:53;6.72;;;3.00;;
46086;SDS011;31824;49.648;8.640;2023-06-22T02:04:02;5.38;;;3.10;;
46086;SDS011;31824;49.648;8.640;2023-06-22T02:07:37;5.72;;;3.33;;
46086;SDS011;31824;49.648;8.640;2023-06-22T02:10:46;6.75;;;3.60;;
46086;SDS011;31824;49.648;8.640;2023-06-22T02:13:51;7.88;;;3.03;;
46086;SDS011;31824;49.648;8.640;2023-06-22T02:16:56;6.63;;;3.30;;
46086;SDS011;31824;49.648;8.640;2023-06-22T02:20:02;5.95;;;3.33;;
46086;SDS011;31824;49.648;8.640;2023-06-22T02:23:10;4.57;;;2.80;;
46086;SDS011;31824;49.648;8.640;2023-06-22T02:26:12;5.80;;;3.38;;
46086;SDS011;31824;49.648;8.640;2023-06-22T02:29:15;5.45;;;2.95;;
46086;SDS011;31824;49.648;8.640;2023-06-22T02:32:19;6.55;;;3.30;;
46086;SDS011;31824;49.648;8.640;2023-06-22T02:35:21;5.72;;;3.38;;
46086;SDS011;31824;49.648;8.640;2023-06-22T02:38:26;6.55;;;3.38;;
46086;SDS011;31824;49.648;8.640;2023-06-22T02:41:29;5.75;;;3.28;;
46086;SDS011;31824;49.648;8.640;2023-06-22T02:44:32;5.68;;;3.28;;
46086;SDS011;31824;49.648;8.640;2023-06-22T02:47:36;6.60;;;3.30;;
46086;SDS011;31824;49.648;8.640;2023-06-22T02:50:39;5.57;;;3.28;;
46086;SDS011;31824;49.648;8.640;2023-06-22T02:53:41;6.75;;;3.20;;
46086;SDS011;31824;49.648;8.640;2023-06-22T02:56:48;7.18;;;3.33;;
46086;SDS011;31824;49.648;8.640;2023-06-22T02:59:50;7.65;;;3.35;;
46086;SDS011;31824;49.648;8.640;2023-06-22T03:02:54;7.25;;;3.03;;
46086;SDS011;31824;49.648;8.640;2023-06-22T03:05:57;6.97;;;2.80;;
46086;SDS011;31824;49.648;8.640;2023-06-22T03:09:24;6.03;;;2.70;;
46086;SDS011;31824;49.648;8.640;2023-06-22T03:12:27;5.75;;;2.53;;
46086;SDS011;31824;49.648;8.640;2023-06-22T03:15:29;5.43;;;2.67;;
46086;SDS011;31824;49.648;8.640;2023-06-22T03:18:35;4.57;;;2.45;;
46086;SDS011;31824;49.648;8.640;2023-06-22T03:21:37;5.68;;;2.63;;
46086;SDS011;31824;49.648;8.640;2023-06-22T03:24:44;4.18;;;2.20;;
46086;SDS011;31824;49.648;8.640;2023-06-22T03:27:46;6.63;;;2.58;;
46086;SDS011;31824;49.648;8.640;2023-06-22T03:30:49;5.50;;;2.50;;
46086;SDS011;31824;49.648;8.640;2023-06-22T03:33:53;6.15;;;2.90;;
46086;SDS011;31824;49.648;8.640;2023-06-22T03:36:57;4.72;;;2.50;;
46086;SDS011;31824;49.648;8.640;2023-06-22T03:39:59;5.78;;;2.50;;
46086;SDS011;31824;49.648;8.640;2023-06-22T03:43:03;6.00;;;2.90;;
46086;SDS011;31824;49.648;8.640;2023-06-22T03:46:05;4.80;;;2.50;;
46086;SDS011;31824;49.648;8.640;2023-06-22T03:49:09;5.63;;;2.75;;
46086;SDS011;31824;49.648;8.640;2023-06-22T03:52:11;5.65;;;2.63;;
46086;SDS011;31824;49.648;8.640;2023-06-22T03:55:13;4.85;;;2.63;;
46086;SDS011;31824;49.648;8.640;2023-06-22T03:58:16;4.30;;;2.30;;
46086;SDS011;31824;49.648;8.640;2023-06-22T04:01:22;4.60;;;2.40;;
46086;SDS011;31824;49.648;8.640;2023-06-22T04:04:27;5.38;;;2.63;;
46086;SDS011;31824;49.648;8.640;2023-06-22T04:07:56;4.93;;;2.45;;
46086;SDS011;31824;49.648;8.640;2023-06-22T04:10:58;4.30;;;2.22;;
46086;SDS011;31824;49.648;8.640;2023-06-22T04:14:00;9.02;;;2.85;;
46086;SDS011;31824;49.648;8.640;2023-06-22T04:17:05;5.15;;;2.60;;
46086;SDS011;31824;49.648;8.640;2023-06-22T04:20:09;6.00;;;2.25;;
46086;SDS011;31824;49.648;8.640;2023-06-22T04:23:11;4.82;;;2.50;;
46086;SDS011;31824;49.648;8.640;2023-06-22T04:26:13;4.68;;;2.22;;
46086;SDS011;31824;49.648;8.640;2023-06-22T04:29:15;9.68;;;2.60;;
46086;SDS011;31824;49.648;8.640;2023-06-22T04:32:17;4.22;;;2.35;;
46086;SDS011;31824;49.648;8.640;2023-06-22T04:35:22;4.70;;;2.47;;
46086;SDS011;31824;49.648;8.640;2023-06-22T04:38:26;6.72;;;2.45;;
46086;SDS011;31824;49.648;8.640;2023-06-22T04:41:31;4.90;;;2.50;;
46086;SDS011;31824;49.648;8.640;2023-06-22T04:45:08;4.25;;;2.60;;
46086;SDS011;31824;49.648;8.640;2023-06-22T04:48:12;5.68;;;2.40;;
46086;SDS011;31824;49.648;8.640;2023-06-22T04:51:19;6.28;;;2.20;;
46086;SDS011;31824;49.648;8.640;2023-06-22T04:57:50;4.82;;;2.70;;
46086;SDS011;31824;49.648;8.640;2023-06-22T05:00:52;4.43;;;2.53;;
46086;SDS011;31824;49.648;8.640;2023-06-22T05:03:55;6.20;;;2.90;;
46086;SDS011;31824;49.648;8.640;2023-06-22T05:06:59;5.10;;;2.83;;
46086;SDS011;31824;49.648;8.640;2023-06-22T05:10:04;5.03;;;2.90;;
46086;SDS011;31824;49.648;8.640;2023-06-22T05:13:09;6.22;;;3.25;;
46086;SDS011;31824;49.648;8.640;2023-06-22T05:16:11;6.22;;;3.03;;
46086;SDS011;31824;49.648;8.640;2023-06-22T05:19:13;5.97;;;3.28;;
46086;SDS011;31824;49.648;8.640;2023-06-22T05:22:19;6.07;;;3.20;;
46086;SDS011;31824;49.648;8.640;2023-06-22T05:25:21;6.43;;;3.33;;
46086;SDS011;31824;49.648;8.640;2023-06-22T05:28:25;5.07;;;3.13;;
46086;SDS011;31824;49.648;8.640;2023-06-22T05:31:28;7.80;;;3.33;;
46086;SDS011;31824;49.648;8.640;2023-06-22T05:34:33;5.85;;;3.20;;
46086;SDS011;31824;49.648;8.640;2023-06-22T05:37:37;5.88;;;3.17;;
46086;SDS011;31824;49.648;8.640;2023-06-22T05:40:39;9.50;;;3.60;;
46086;SDS011;31824;49.648;8.640;2023-06-22T05:43:41;6.28;;;3.40;;
46086;SDS011;31824;49.648;8.640;2023-06-22T05:46:44;6.97;;;3.28;;
46086;SDS011;31824;49.648;8.640;2023-06-22T05:49:50;7.15;;;3.50;;
46086;SDS011;31824;49.648;8.640;2023-06-22T05:52:53;7.13;;;3.30;;
46086;SDS011;31824;49.648;8.640;2023-06-22T05:55:55;7.68;;;3.85;;
46086;SDS011;31824;49.648;8.640;2023-06-22T05:58:58;5.22;;;3.17;;
46086;SDS011;31824;49.648;8.640;2023-06-22T06:02:00;7.70;;;3.50;;
46086;SDS011;31824;49.648;8.640;2023-06-22T06:05:06;5.75;;;3.42;;
46086;SDS011;31824;49.648;8.640;2023-06-22T06:08:10;7.57;;;3.50;;
46086;SDS011;31824;49.648;8.640;2023-06-22T06:11:15;11.20;;;3.70;;
46086;SDS011;31824;49.648;8.640;2023-06-22T06:14:17;6.10;;;3.50;;
46086;SDS011;31824;49.648;8.640;2023-06-22T06:17:19;6.68;;;3.42;;
46086;SDS011;31824;49.648;8.640;2023-06-22T06:20:26;6.15;;;3.30;;
46086;SDS011;31824;49.648;8.640;2023-06-22T06:23:34;7.63;;;3.20;;
46086;SDS011;31824;49.648;8.640;2023-06-22T06:26:36;6.22;;;3.45;;
46086;SDS011;31824;49.648;8.640;2023-06-22T06:29:40;6.18;;;3.08;;
46086;SDS011;31824;49.648;8.640;2023-06-22T06:32:42;7.22;;;3.30;;
46086;SDS011;31824;49.648;8.640;2023-06-22T06:35:47;7.47;;;3.50;;
46086;SDS011;31824;49.648;8.640;2023-06-22T06:38:50;5.53;;;3.35;;
46086;SDS011;31824;49.648;8.640;2023-06-22T06:41:56;6.20;;;2.85;;
46086;SDS011;31824;49.648;8.640;2023-06-22T06:44:58;6.03;;;3.10;;
46086;SDS011;31824;49.648;8.640;2023-06-22T06:48:00;6.53;;;2.95;;
46086;SDS011;31824;49.648;8.640;2023-06-22T06:51:04;5.88;;;3.17;;
46086;SDS011;31824;49.648;8.640;2023-06-22T06:54:07;8.85;;;4.15;;
46086;SDS011;31824;49.648;8.640;2023-06-22T06:57:10;6.53;;;2.97;;
46086;SDS011;31824;49.648;8.640;2023-06-22T07:00:15;6.65;;;3.03;;
46086;SDS011;31824;49.648;8.640;2023-06-22T07:03:18;6.20;;;2.97;;
46086;SDS011;31824;49.648;8.640;2023-06-22T07:06:20;5.10;;;2.85;;
46086;SDS011;31824;49.648;8.640;2023-06-22T07:09:54;6.20;;;2.95;;
46086;SDS011;31824;49.648;8.640;2023-06-22T07:13:01;6.50;;;2.97;;
46086;SDS011;31824;49.648;8.640;2023-06-22T07:16:04;4.97;;;2.88;;
46086;SDS011;31824;49.648;8.640;2023-06-22T07:19:07;6.85;;;3.33;;
46086;SDS011;31824;49.648;8.640;2023-06-22T07:22:11;6.70;;;3.40;;
46086;SDS011;31824;49.648;8.640;2023-06-22T07:25:18;5.88;;;2.83;;
46086;SDS011;31824;49.648;8.640;2023-06-22T07:28:20;6.32;;;3.25;;
46086;SDS011;31824;49.648;8.640;2023-06-22T07:31:23;7.07;;;3.00;;
46086;SDS011;31824;49.648;8.640;2023-06-22T07:34:25;5.78;;;3.20;;
46086;SDS011;31824;49.648;8.640;2023-06-22T07:37:31;5.43;;;3.10;;
46086;SDS011;31824;49.648;8.640;2023-06-22T07:40:36;6.75;;;3.45;;
46086;SDS011;31824;49.648;8.640;2023-06-22T07:43:38;4.78;;;3.05;;
46086;SDS011;31824;49.648;8.640;2023-06-22T07:46:40;5.13;;;2.67;;
46086;SDS011;31824;49.648;8.640;2023-06-22T07:49:42;6.00;;;2.95;;
46086;SDS011;31824;49.648;8.640;2023-06-22T07:52:44;7.35;;;3.35;;
46086;SDS011;31824;49.648;8.640;2023-06-22T07:55:52;6.72;;;3.03;;
46086;SDS011;31824;49.648;8.640;2023-06-22T07:58:54;5.90;;;3.17;;
46086;SDS011;31824;49.648;8.640;2023-06-22T08:01:59;6.82;;;3.33;;
46086;SDS011;31824;49.648;8.640;2023-06-22T08:05:03;6.78;;;3.22;;
46086;SDS011;31824;49.648;8.640;2023-06-22T08:08:22;6.35;;;3.55;;
46086;SDS011;31824;49.648;8.640;2023-06-22T08:11:25;5.82;;;3.35;;
46086;SDS011;31824;49.648;8.640;2023-06-22T08:14:29;6.07;;;3.10;;
46086;SDS011;31824;49.648;8.640;2023-06-22T08:17:31;5.93;;;3.03;;
46086;SDS011;31824;49.648;8.640;2023-06-22T08:20:33;7.30;;;3.33;;
46086;SDS011;31824;49.648;8.640;2023-06-22T08:23:35;4.80;;;2.78;;
46086;SDS011;31824;49.648;8.640;2023-06-22T08:26:38;7.55;;;3.38;;
46086;SDS011;31824;49.648;8.640;2023-06-22T08:29:40;5.75;;;3.15;;
46086;SDS011;31824;49.648;8.640;2023-06-22T08:32:47;7.50;;;3.47;;
46086;SDS011;31824;49.648;8.640;2023-06-22T08:35:49;5.03;;;2.88;;
46086;SDS011;31824;49.648;8.640;2023-06-22T08:38:51;6.38;;;3.17;;
46086;SDS011;31824;49.648;8.640;2023-06-22T08:41:55;7.75;;;3.15;;
46086;SDS011;31824;49.648;8.640;2023-06-22T08:44:57;7.35;;;2.97;;
46086;SDS011;31824;49.648;8.640;2023-06-22T08:48:01;6.55;;;3.50;;
46086;SDS011;31824;49.648;8.640;2023-06-22T08:51:04;7.05;;;3.17;;
46086;SDS011;31824;49.648;8.640;2023-06-22T08:54:07;5.60;;;2.95;;
46086;SDS011;31824;49.648;8.640;2023-06-22T08:57:41;5.70;;;2.67;;
46086;SDS011;31824;49.648;8.640;2023-06-22T09:00:45;4.97;;;2.90;;
46086;SDS011;31824;49.648;8.640;2023-06-22T09:03:48;5.75;;;2.65;;
46086;SDS011;31824;49.648;8.640;2023-06-22T09:07:23;6.00;;;2.80;;
46086;SDS011;31824;49.648;8.640;2023-06-22T09:10:26;8.18;;;2.95;;
46086;SDS011;31824;49.648;8.640;2023-06-22T09:13:30;6.93;;;3.22;;
46086;SDS011;31824;49.648;8.640;2023-06-22T09:16:34;5.28;;;3.08;;
46086;SDS011;31824;49.648;8.640;2023-06-22T09:19:37;7.65;;;3.22;;
46086;SDS011;31824;49.648;8.640;2023-06-22T09:22:39;5.85;;;2.97;;
46086;SDS011;31824;49.648;8.640;2023-06-22T09:25:42;6.38;;;3.15;;
46086;SDS011;31824;49.648;8.640;2023-06-22T09:29:14;5.60;;;2.67;;
46086;SDS011;31824;49.648;8.640;2023-06-22T09:32:17;5.32;;;2.67;;
46086;SDS011;31824;49.648;8.640;2023-06-22T09:35:44;6.53;;;3.08;;
46086;SDS011;31824;49.648;8.640;2023-06-22T09:38:48;5.18;;;2.60;;
46086;SDS011;31824;49.648;8.640;2023-06-22T09:42:00;4.80;;;2.60;;
46086;SDS011;31824;49.648;8.640;2023-06-22T09:45:05;4.93;;;2.58;;
46086;SDS011;31824;49.648;8.640;2023-06-22T09:51:16;5.85;;;2.75;;
46086;SDS011;31824;49.648;8.640;2023-06-22T09:54:18;7.22;;;2.50;;
46086;SDS011;31824;49.648;8.640;2023-06-22T09:57:21;6.80;;;2.67;;
46086;SDS011;31824;49.648;8.640;2023-06-22T10:00:24;7.72;;;2.42;;
46086;SDS011;31824;49.648;8.640;2023-06-22T10:03:31;8.27;;;2.70;;
46086;SDS011;31824;49.648;8.640;2023-06-22T10:06:34;4.75;;;2.10;;
46086;SDS011;31824;49.648;8.640;2023-06-22T10:09:36;5.32;;;2.65;;
46086;SDS011;31824;49.648;8.640;2023-06-22T10:12:45;6.05;;;2.40;;
46086;SDS011;31824;49.648;8.640;2023-06-22T10:16:14;4.40;;;2.00;;
46086;SDS011;31824;49.648;8.640;2023-06-22T10:19:18;5.43;;;2.15;;
46086;SDS011;31824;49.648;8.640;2023-06-22T10:22:20;4.22;;;2.40;;
46086;SDS011;31824;49.648;8.640;2023-06-22T10:25:26;5.47;;;2.30;;
46086;SDS011;31824;49.648;8.640;2023-06-22T10:28:29;3.78;;;2.08;;
46086;SDS011;31824;49.648;8.640;2023-06-22T10:32:18;4.90;;;2.35;;
46086;SDS011;31824;49.648;8.640;2023-06-22T10:35:45;5.57;;;2.30;;
46086;SDS011;31824;49.648;8.640;2023-06-22T10:38:48;5.13;;;2.20;;
46086;SDS011;31824;49.648;8.640;2023-06-22T10:41:52;4.80;;;2.13;;
46086;SDS011;31824;49.648;8.640;2023-06-22T10:44:55;7.38;;;2.42;;
46086;SDS011;31824;49.648;8.640;2023-06-22T10:47:58;7.45;;;2.70;;
46086;SDS011;31824;49.648;8.640;2023-06-22T10:54:02;6.65;;;2.10;;
46086;SDS011;31824;49.648;8.640;2023-06-22T10:57:06;4.00;;;2.10;;
46086;SDS011;31824;49.648;8.640;2023-06-22T11:00:09;4.97;;;2.25;;
46086;SDS011;31824;49.648;8.640;2023-06-22T11:03:14;5.90;;;2.25;;
46086;SDS011;31824;49.648;8.640;2023-06-22T11:06:16;5.63;;;2.35;;
46086;SDS011;31824;49.648;8.640;2023-06-22T11:09:20;5.38;;;2.13;;
46086;SDS011;31824;49.648;8.640;2023-06-22T11:12:55;7.93;;;2.58;;
46086;SDS011;31824;49.648;8.640;2023-06-22T11:15:59;4.85;;;2.38;;
46086;SDS011;31824;49.648;8.640;2023-06-22T11:19:04;6.72;;;2.20;;
46086;SDS011;31824;49.648;8.640;2023-06-22T11:22:07;7.68;;;2.17;;
46086;SDS011;31824;49.648;8.640;2023-06-22T11:25:09;6.30;;;2.45;;
46086;SDS011;31824;49.648;8.640;2023-06-22T11:28:13;4.90;;;2.00;;
46086;SDS011;31824;49.648;8.640;2023-06-22T11:31:15;5.55;;;2.30;;
46086;SDS011;31824;49.648;8.640;2023-06-22T11:34:28;5.13;;;2.13;;
46086;SDS011;31824;49.648;8.640;2023-06-22T11:40:58;4.82;;;2.30;;
46086;SDS011;31824;49.648;8.640;2023-06-22T11:44:01;6.80;;;2.03;;
46086;SDS011;31824;49.648;8.640;2023-06-22T11:47:06;7.20;;;2.58;;
46086;SDS011;31824;49.648;8.640;2023-06-22T11:50:12;5.25;;;2.28;;
46086;SDS011;31824;49.648;8.640;2023-06-22T11:53:15;9.55;;;2.70;;
46086;SDS011;31824;49.648;8.640;2023-06-22T11:56:20;5.40;;;2.13;;
46086;SDS011;31824;49.648;8.640;2023-06-22T11:59:47;7.50;;;2.25;;
46086;SDS011;31824;49.648;8.640;2023-06-22T12:02:49;5.55;;;2.22;;
46086;SDS011;31824;49.648;8.640;2023-06-22T12:05:57;8.50;;;2.35;;
46086;SDS011;31824;49.648;8.640;2023-06-22T12:08:59;6.75;;;2.03;;
46086;SDS011;31824;49.648;8.640;2023-06-22T12:12:02;5.50;;;2.00;;
46086;SDS011;31824;49.648;8.640;2023-06-22T12:15:04;5.80;;;2.17;;
46086;SDS011;31824;49.648;8.640;2023-06-22T12:18:07;6.82;;;2.03;;
46086;SDS011;31824;49.648;8.640;2023-06-22T12:21:16;7.28;;;2.20;;
46086;SDS011;31824;49.648;8.640;2023-06-22T12:24:19;4.07;;;2.03;;
46086;SDS011;31824;49.648;8.640;2023-06-22T12:27:21;7.95;;;2.30;;
46086;SDS011;31824;49.648;8.640;2023-06-22T12:30:23;5.35;;;2.33;;
46086;SDS011;31824;49.648;8.640;2023-06-22T12:33:28;5.95;;;2.28;;
46086;SDS011;31824;49.648;8.640;2023-06-22T12:36:33;4.20;;;2.08;;
46086;SDS011;31824;49.648;8.640;2023-06-22T12:39:39;6.07;;;2.60;;
46086;SDS011;31824;49.648;8.640;2023-06-22T12:42:42;6.22;;;2.08;;
46086;SDS011;31824;49.648;8.640;2023-06-22T12:45:44;7.07;;;2.47;;
46086;SDS011;31824;49.648;8.640;2023-06-22T12:48:49;8.07;;;2.28;;
46086;SDS011;31824;49.648;8.640;2023-06-22T12:51:56;7.30;;;2.30;;
46086;SDS011;31824;49.648;8.640;2023-06-22T12:54:59;7.07;;;2.67;;
46086;SDS011;31824;49.648;8.640;2023-06-22T12:58:01;6.55;;;2.58;;
46086;SDS011;31824;49.648;8.640;2023-06-22T13:01:03;6.70;;;2.35;;
46086;SDS011;31824;49.648;8.640;2023-06-22T13:07:36;6.53;;;2.17;;
46086;SDS011;31824;49.648;8.640;2023-06-22T13:10:39;4.88;;;2.30;;
46086;SDS011;31824;49.648;8.640;2023-06-22T13:13:43;6.43;;;2.38;;
46086;SDS011;31824;49.648;8.640;2023-06-22T13:16:46;6.28;;;2.00;;
46086;SDS011;31824;49.648;8.640;2023-06-22T13:19:49;7.47;;;2.10;;
46086;SDS011;31824;49.648;8.640;2023-06-22T13:22:54;3.95;;;1.95;;
46086;SDS011;31824;49.648;8.640;2023-06-22T13:25:57;5.80;;;1.75;;
46086;SDS011;31824;49.648;8.640;2023-06-22T13:28:59;4.18;;;1.77;;
46086;SDS011;31824;49.648;8.640;2023-06-22T13:32:02;6.45;;;1.95;;
46086;SDS011;31824;49.648;8.640;2023-06-22T13:35:05;6.88;;;2.40;;
46086;SDS011;31824;49.648;8.640;2023-06-22T13:38:09;4.85;;;1.80;;
46086;SDS011;31824;49.648;8.640;2023-06-22T13:41:12;7.53;;;2.05;;
46086;SDS011;31824;49.648;8.640;2023-06-22T13:44:15;3.88;;;1.80;;
46086;SDS011;31824;49.648;8.640;2023-06-22T13:47:19;7.20;;;2.28;;
46086;SDS011;31824;49.648;8.640;2023-06-22T13:50:21;5.60;;;2.05;;
46086;SDS011;31824;49.648;8.640;2023-06-22T13:53:25;4.07;;;1.88;;
46086;SDS011;31824;49.648;8.640;2023-06-22T13:56:29;5.50;;;1.85;;
46086;SDS011;31824;49.648;8.640;2023-06-22T13:59:31;4.57;;;1.80;;
46086;SDS011;31824;49.648;8.640;2023-06-22T14:02:34;4.43;;;1.75;;
46086;SDS011;31824;49.648;8.640;2023-06-22T14:05:44;6.18;;;1.80;;
46086;SDS011;31824;49.648;8.640;2023-06-22T14:08:48;5.75;;;2.00;;
46086;SDS011;31824;49.648;8.640;2023-06-22T14:11:53;4.70;;;1.80;;
46086;SDS011;31824;49.648;8.640;2023-06-22T14:18:24;4.65;;;2.00;;
46086;SDS011;31824;49.648;8.640;2023-06-22T14:21:26;4.80;;;1.95;;
46086;SDS011;31824;49.648;8.640;2023-06-22T14:24:30;7.68;;;1.90;;
46086;SDS011;31824;49.648;8.640;2023-06-22T14:27:33;4.35;;;2.10;;
46086;SDS011;31824;49.648;8.640;2023-06-22T14:30:35;7.18;;;2.40;;
46086;SDS011;31824;49.648;8.640;2023-06-22T14:33:37;6.80;;;1.95;;
46086;SDS011;31824;49.648;8.640;2023-06-22T14:36:39;6.68;;;2.22;;
46086;SDS011;31824;49.648;8.640;2023-06-22T14:39:43;5.15;;;2.05;;
46086;SDS011;31824;49.648;8.640;2023-06-22T14:42:45;4.65;;;1.90;;
46086;SDS011;31824;49.648;8.640;2023-06-22T14:45:48;6.82;;;2.15;;
46086;SDS011;31824;49.648;8.640;2023-06-22T14:48:54;4.60;;;2.08;;
46086;SDS011;31824;49.648;8.640;2023-06-22T14:51:59;7.45;;;2.58;;
46086;SDS011;31824;49.648;8.640;2023-06-22T14:55:03;5.72;;;1.88;;
46086;SDS011;31824;49.648;8.640;2023-06-22T14:58:05;6.05;;;1.92;;
46086;SDS011;31824;49.648;8.640;2023-06-22T15:01:08;6.20;;;2.30;;
46086;SDS011;31824;49.648;8.640;2023-06-22T15:04:10;5.65;;;2.03;;
46086;SDS011;31824;49.648;8.640;2023-06-22T15:07:38;5.50;;;2.17;;
46086;SDS011;31824;49.648;8.640;2023-06-22T15:10:42;5.22;;;2.00;;
46086;SDS011;31824;49.648;8.640;2023-06-22T15:16:51;7.45;;;2.25;;
46086;SDS011;31824;49.648;8.640;2023-06-22T15:19:59;5.78;;;2.17;;
46086;SDS011;31824;49.648;8.640;2023-06-22T15:23:02;4.43;;;1.90;;
46086;SDS011;31824;49.648;8.640;2023-06-22T15:26:06;5.10;;;2.15;;
46086;SDS011;31824;49.648;8.640;2023-06-22T15:29:08;5.18;;;2.08;;
46086;SDS011;31824;49.648;8.640;2023-06-22T15:32:13;8.45;;;2.10;;
46086;SDS011;31824;49.648;8.640;2023-06-22T15:35:15;6.35;;;2.40;;
46086;SDS011;31824;49.648;8.640;2023-06-22T15:38:21;7.85;;;2.58;;
46086;SDS011;31824;49.648;8.640;2023-06-22T15:41:25;7.20;;;2.85;;
46086;SDS011;31824;49.648;8.640;2023-06-22T15:44:31;9.15;;;2.25;;
46086;SDS011;31824;49.648;8.640;2023-06-22T15:47:34;5.15;;;2.42;;
46086;SDS011;31824;49.648;8.640;2023-06-22T15:51:03;5.00;;;2.20;;
46086;SDS011;31824;49.648;8.640;2023-06-22T15:54:07;5.53;;;2.60;;
46086;SDS011;31824;49.648;8.640;2023-06-22T15:57:11;9.25;;;2.70;;
46086;SDS011;31824;49.648;8.640;2023-06-22T16:03:43;6.05;;;2.50;;
46086;SDS011;31824;49.648;8.640;2023-06-22T16:10:38;6.35;;;2.33;;
46086;SDS011;31824;49.648;8.640;2023-06-22T16:14:07;7.93;;;2.60;;
46086;SDS011;31824;49.648;8.640;2023-06-22T16:17:42;6.25;;;2.58;;
46086;SDS011;31824;49.648;8.640;2023-06-22T16:20:44;9.93;;;2.47;;
46086;SDS011;31824;49.648;8.640;2023-06-22T16:30:27;6.97;;;2.33;;
46086;SDS011;31824;49.648;8.640;2023-06-22T16:36:31;8.00;;;2.55;;
46086;SDS011;31824;49.648;8.640;2023-06-22T16:39:33;7.45;;;2.63;;
46086;SDS011;31824;49.648;8.640;2023-06-22T16:42:35;10.13;;;2.53;;
46086;SDS011;31824;49.648;8.640;2023-06-22T16:45:38;5.68;;;2.20;;
46086;SDS011;31824;49.648;8.640;2023-06-22T16:48:40;7.00;;;2.47;;
46086;SDS011;31824;49.648;8.640;2023-06-22T16:51:42;7.72;;;2.75;;
46086;SDS011;31824;49.648;8.640;2023-06-22T16:54:44;6.80;;;1.98;;
46086;SDS011;31824;49.648;8.640;2023-06-22T16:58:01;5.45;;;2.10;;
46086;SDS011;31824;49.648;8.640;2023-06-22T17:01:06;5.38;;;2.15;;
46086;SDS011;31824;49.648;8.640;2023-06-22T17:04:11;8.35;;;2.63;;
46086;SDS011;31824;49.648;8.640;2023-06-22T17:07:18;6.40;;;1.60;;
46086;SDS011;31824;49.648;8.640;2023-06-22T17:10:21;3.33;;;1.33;;
46086;SDS011;31824;49.648;8.640;2023-06-22T17:13:26;6.22;;;1.20;;
46086;SDS011;31824;49.648;8.640;2023-06-22T17:16:31;4.35;;;1.33;;
46086;SDS011;31824;49.648;8.640;2023-06-22T17:19:33;4.32;;;1.60;;
46086;SDS011;31824;49.648;8.640;2023-06-22T17:22:35;5.57;;;1.30;;
46086;SDS011;31824;49.648;8.640;2023-06-22T17:25:39;5.47;;;1.52;;
46086;SDS011;31824;49.648;8.640;2023-06-22T17:28:47;3.50;;;1.10;;
46086;SDS011;31824;49.648;8.640;2023-06-22T17:31:52;4.30;;;1.30;;
46086;SDS011;31824;49.648;8.640;2023-06-22T17:34:57;4.78;;;1.20;;
46086;SDS011;31824;49.648;8.640;2023-06-22T17:37:59;3.45;;;1.10;;
46086;SDS011;31824;49.648;8.640;2023-06-22T17:41:01;3.08;;;1.23;;
46086;SDS011;31824;49.648;8.640;2023-06-22T17:44:10;5.05;;;1.02;;
46086;SDS011;31824;49.648;8.640;2023-06-22T17:47:16;3.50;;;0.90;;
46086;SDS011;31824;49.648;8.640;2023-06-22T17:50:24;3.50;;;1.10;;
46086;SDS011;31824;49.648;8.640;2023-06-22T17:53:26;5.38;;;1.17;;
46086;SDS011;31824;49.648;8.640;2023-06-22T17:56:29;4.38;;;1.52;;
46086;SDS011;31824;49.648;8.640;2023-06-22T17:59:31;5.75;;;1.42;;
46086;SDS011;31824;49.648;8.640;2023-06-22T18:02:35;4.63;;;1.15;;
46086;SDS011;31824;49.648;8.640;2023-06-22T18:05:39;4.20;;;1.45;;
46086;SDS011;31824;49.648;8.640;2023-06-22T18:08:47;4.43;;;1.35;;
46086;SDS011;31824;49.648;8.640;2023-06-22T18:11:52;4.53;;;1.30;;
46086;SDS011;31824;49.648;8.640;2023-06-22T18:14:57;7.25;;;1.55;;
46086;SDS011;31824;49.648;8.640;2023-06-22T18:18:00;17.92;;;7.80;;
46086;SDS011;31824;49.648;8.640;2023-06-22T18:21:03;15.65;;;4.18;;
46086;SDS011;31824;49.648;8.640;2023-06-22T18:24:06;6.07;;;1.77;;
46086;SDS011;31824;49.648;8.640;2023-06-22T18:27:08;4.40;;;1.33;;
46086;SDS011;31824;49.648;8.640;2023-06-22T18:30:11;4.47;;;1.02;;
46086;SDS011;31824;49.648;8.640;2023-06-22T18:33:16;5.60;;;2.25;;
46086;SDS011;31824;49.648;8.640;2023-06-22T18:36:19;3.83;;;1.10;;
46086;SDS011;31824;49.648;8.640;2023-06-22T18:39:25;4.65;;;1.25;;
46086;SDS011;31824;49.648;8.640;2023-06-22T18:42:29;6.47;;;1.10;;
46086;SDS011;31824;49.648;8.640;2023-06-22T18:45:31;5.05;;;1.33;;
46086;SDS011;31824;49.648;8.640;2023-06-22T18:48:37;6.22;;;0.95;;
46086;SDS011;31824;49.648;8.640;2023-06-22T18:51:48;3.03;;;1.05;;
46086;SDS011;31824;49.648;8.640;2023-06-22T18:54:52;2.90;;;1.10;;
46086;SDS011;31824;49.648;8.640;2023-06-22T19:01:22;5.32;;;1.30;;
46086;SDS011;31824;49.648;8.640;2023-06-22T19:04:29;5.47;;;1.10;;
46086;SDS011;31824;49.648;8.640;2023-06-22T19:11:10;3.28;;;0.90;;
46086;SDS011;31824;49.648;8.640;2023-06-22T19:14:17;3.38;;;1.17;;
46086;SDS011;31824;49.648;8.640;2023-06-22T19:17:20;7.03;;;1.00;;
46086;SDS011;31824;49.648;8.640;2023-06-22T19:20:26;3.83;;;1.08;;
46086;SDS011;31824;49.648;8.640;2023-06-22T19:23:33;3.05;;;1.00;;
46086;SDS011;31824;49.648;8.640;2023-06-22T19:26:38;6.40;;;1.08;;
46086;SDS011;31824;49.648;8.640;2023-06-22T19:29:40;3.50;;;1.20;;
46086;SDS011;31824;49.648;8.640;2023-06-22T19:32:44;4.80;;;0.73;;